Time;durP1;ratioP1;P1;durP2;ratioP2;P2;SDS_P1;SDS_P2;PMS_P1;PMS_P2;Temp;Humidity;BMP_temperature;BMP_pressure;BME280_temperature;BME280_humidity;BME280_pressure;Samples;Min_cycle;Max_cycle;Signal;HPM_P1;HPM_P2
2023/09/03 00:01:22;;;;;;;9.37;6.50;;;;;;;-141.97;60.20;47419.13;5028571;28;20197;-80
2023/09/03 00:03:47;;;;;;;16.33;6.77;;;;;;;-141.97;59.77;47334.56;5028529;28;20204;-79
2023/09/03 00:06:13;;;;;;;10.53;6.63;;;;;;;-141.97;59.79;47522.91;5029320;28;20189;-79
2023/09/03 00:08:38;;;;;;;7.80;6.23;;;;;;;-141.97;59.45;47401.84;5028812;28;20201;-81
2023/09/03 00:11:03;;;;;;;8.80;6.20;;;;;;;-141.97;59.45;47419.13;5048299;28;20327;-79
2023/09/03 00:13:29;;;;;;;8.03;6.33;;;;;;;-141.97;59.99;47346.09;5054148;28;20202;-79
2023/09/03 00:15:54;;;;;;;7.23;6.30;;;;;;;-141.97;59.80;47407.59;5028522;28;20729;-80
2023/09/03 00:18:19;;;;;;;8.80;6.70;;;;;;;-141.97;60.32;47390.31;5031210;28;20187;-79
2023/09/03 00:21:00;;;;;;;8.00;6.50;;;;;;;-141.97;60.10;47413.38;5029561;28;20170;-79
2023/09/03 00:23:26;;;;;;;10.10;6.40;;;;;;;-141.97;61.01;47403.75;5029049;28;20268;-79
2023/09/03 00:25:52;;;;;;;9.27;6.60;;;;;;;-141.97;62.14;47413.38;5028635;28;20983;-80
2023/09/03 00:28:17;;;;;;;10.00;7.10;;;;;;;-141.97;62.31;47415.28;5029596;28;20276;-80
2023/09/03 00:30:43;;;;;;;8.63;6.80;;;;;;;-141.97;63.27;47419.13;5031209;28;20170;-79
2023/09/03 00:33:08;;;;;;;9.87;7.30;;;;;;;-141.97;64.22;47421.06;5030213;28;20166;-79
2023/09/03 00:35:33;;;;;;;10.90;7.33;;;;;;;-141.97;64.34;47424.91;5030116;28;20196;-79
2023/09/03 00:37:59;;;;;;;10.00;7.00;;;;;;;-141.97;64.29;47421.06;5029901;28;20181;-79
2023/09/03 00:40:24;;;;;;;10.70;7.13;;;;;;;-141.97;64.17;47388.38;5030186;28;20197;-79
2023/09/03 00:42:50;;;;;;;10.63;7.20;;;;;;;-141.97;63.85;47411.44;5030071;28;20329;-78
2023/09/03 00:45:15;;;;;;;11.93;7.30;;;;;;;-141.97;64.02;47326.88;5030506;28;20665;-79
2023/09/03 00:47:41;;;;;;;10.03;7.90;;;;;;;-141.97;64.76;47465.25;5029633;28;20174;-79
2023/09/03 00:50:08;;;;;;;11.27;7.83;;;;;;;-141.97;64.54;47317.28;5018965;28;20244;-79
2023/09/03 00:52:34;;;;;;;13.40;8.20;;;;;;;-141.97;64.69;47436.44;5030190;28;20181;-80
2023/09/03 00:54:59;;;;;;;10.67;8.03;;;;;;;-141.97;64.32;47484.47;5032952;28;20722;-80
2023/09/03 00:57:25;;;;;;;11.13;7.97;;;;;;;-141.97;64.30;47415.28;5033726;28;20162;-79
2023/09/03 00:59:53;;;;;;;12.37;8.40;;;;;;;-141.97;65.18;47407.59;5033810;28;20169;-79
2023/09/03 01:02:19;;;;;;;13.57;7.97;;;;;;;-141.97;67.05;47430.66;5034020;28;20169;-79
2023/09/03 01:04:45;;;;;;;10.97;8.47;;;;;;;-141.97;67.32;47442.19;5034329;28;20343;-79
2023/09/03 01:07:12;;;;;;;13.10;8.40;;;;;;;-141.97;68.06;47411.44;5033679;28;20177;-79
2023/09/03 01:09:38;;;;;;;10.93;8.13;;;;;;;-141.97;68.03;47438.34;5033221;28;20688;-79
2023/09/03 01:12:19;;;;;;;12.07;8.30;;;;;;;-141.97;67.67;47424.91;5033470;28;20544;-79
2023/09/03 01:14:53;;;;;;;10.50;7.80;;;;;;;-141.97;67.14;47447.97;5034570;28;20219;-79
2023/09/03 01:17:46;;;;;;;13.33;7.97;;;;;;;-141.97;67.22;47422.97;5035659;28;20170;-79
2023/09/03 01:20:18;;;;;;;12.57;7.97;;;;;;;-141.97;67.32;47438.34;5036930;28;20246;-79
2023/09/03 01:23:03;;;;;;;15.07;8.63;;;;;;;-141.97;68.31;47436.44;5036037;28;20166;-79
2023/09/03 01:25:51;;;;;;;13.17;7.73;;;;;;;-141.97;67.46;47413.38;5036274;28;20249;-79
2023/09/03 01:28:23;;;;;;;10.60;7.53;;;;;;;-141.97;66.84;47430.66;4981092;28;20646;-79
2023/09/03 01:30:54;;;;;;;12.90;8.50;;;;;;;-141.97;66.26;47440.28;4991700;28;20273;-79
2023/09/03 01:33:20;;;;;;;10.67;7.77;;;;;;;-141.97;65.70;47415.28;4991957;28;20202;-78
2023/09/03 01:35:48;;;;;;;9.63;7.37;;;;;;;-141.97;65.53;47428.75;4991401;28;20739;-80
2023/09/03 01:38:14;;;;;;;11.83;7.93;;;;;;;-141.97;65.07;47457.56;4991328;28;20202;-79
2023/09/03 01:40:40;;;;;;;10.43;7.33;;;;;;;-141.97;65.04;47405.69;4991366;28;20923;-79
2023/09/03 01:43:05;;;;;;;10.23;7.90;;;;;;;-141.97;64.25;47438.34;4991447;28;20711;-79
2023/09/03 01:45:44;;;;;;;11.07;8.17;;;;;;;-141.97;64.44;47413.38;4991258;28;20377;-79
2023/09/03 01:48:28;;;;;;;9.77;7.70;;;;;;;-141.97;63.97;47463.34;4982031;28;20250;-79
2023/09/03 01:51:06;;;;;;;11.77;7.70;;;;;;;-141.97;63.69;47449.88;4991746;28;20182;-78
2023/09/03 01:53:46;;;;;;;12.37;7.87;;;;;;;-141.97;64.71;47457.56;4975335;28;20261;-79
2023/09/03 01:56:14;;;;;;;12.27;8.47;;;;;;;-141.97;65.47;47376.84;4991625;28;20198;-79
2023/09/03 01:58:42;;;;;;;11.30;8.40;;;;;;;-141.97;66.03;47449.88;4991725;28;20222;-79
2023/09/03 02:01:10;;;;;;;12.60;9.13;;;;;;;-141.97;66.46;47419.13;4991759;28;20605;-79
2023/09/03 02:03:36;;;;;;;13.03;9.00;;;;;;;-141.97;66.66;47547.91;4992110;28;20183;-79
2023/09/03 02:06:05;;;;;;;11.70;8.77;;;;;;;-141.97;67.24;47430.66;5009287;28;20183;-78
2023/09/03 02:08:30;;;;;;;11.03;8.67;;;;;;;-141.97;67.72;47442.19;5022114;28;20182;-79
2023/09/03 02:10:55;;;;;;;14.00;8.97;;;;;;;-141.97;68.31;47422.97;5034807;28;20166;-79
2023/09/03 02:13:21;;;;;;;14.30;8.83;;;;;;;-141.97;68.08;47446.03;5035738;28;20666;-78
2023/09/03 02:15:46;;;;;;;12.50;8.90;;;;;;;-141.97;68.91;47434.50;5033872;28;20225;-79
2023/09/03 02:18:12;;;;;;;13.63;8.63;;;;;;;-141.97;69.25;47476.78;5033565;28;20569;-79
2023/09/03 02:20:37;;;;;;;13.13;9.03;;;;;;;-141.97;70.38;47503.69;5033288;28;20158;-79
2023/09/03 02:23:02;;;;;;;14.17;9.03;;;;;;;-141.97;70.60;47455.66;5032731;28;20214;-79
2023/09/03 02:25:28;;;;;;;15.50;8.97;;;;;;;-141.97;71.60;47457.56;5033610;28;20311;-79
2023/09/03 02:27:53;;;;;;;13.27;8.90;;;;;;;-141.97;71.75;47424.91;5034004;28;20650;-79
2023/09/03 02:30:20;;;;;;;13.87;9.00;;;;;;;-141.97;72.63;47459.50;5033889;28;20162;-80
2023/09/03 02:32:46;;;;;;;12.23;8.80;;;;;;;-141.97;72.46;47507.53;5033510;28;20193;-80
2023/09/03 02:35:11;;;;;;;11.53;8.57;;;;;;;-141.97;73.10;47457.56;5033864;28;20186;-79
2023/09/03 02:37:36;;;;;;;14.90;8.80;;;;;;;-141.97;72.87;47434.50;5033397;28;20273;-80
2023/09/03 02:40:02;;;;;;;12.73;9.50;;;;;;;-141.97;72.83;47374.94;5033479;28;20194;-78
2023/09/03 02:42:28;;;;;;;14.90;9.43;;;;;;;-141.97;73.53;47463.34;5032946;28;20301;-79
2023/09/03 02:44:53;;;;;;;13.30;9.70;;;;;;;-141.97;74.11;47472.94;5033674;28;20186;-79
2023/09/03 02:47:18;;;;;;;15.53;9.27;;;;;;;-141.97;74.34;47476.78;5033582;28;20177;-79
2023/09/03 02:49:44;;;;;;;14.73;9.23;;;;;;;-141.97;74.72;47449.88;5021323;28;20327;-79
2023/09/03 02:52:09;;;;;;;15.10;9.40;;;;;;;-141.97;74.57;47461.41;5032565;28;20162;-79
2023/09/03 02:54:35;;;;;;;17.93;9.97;;;;;;;-141.97;74.40;47461.41;5032615;28;20657;-79
2023/09/03 02:57:00;;;;;;;14.43;9.23;;;;;;;-141.97;74.79;47484.47;5032568;28;20158;-79
2023/09/03 02:59:25;;;;;;;14.10;10.50;;;;;;;-141.97;74.43;47449.88;5032554;28;20172;-79
2023/09/03 03:01:51;;;;;;;15.37;10.07;;;;;;;-141.97;74.45;47469.09;5032941;28;20169;-79
2023/09/03 03:04:16;;;;;;;17.40;10.43;;;;;;;-141.97;74.40;47480.63;5031931;28;20177;-79
2023/09/03 03:06:42;;;;;;;15.83;10.57;;;;;;;-141.97;73.54;47453.72;5032728;28;20169;-78
2023/09/03 03:09:07;;;;;;;16.40;10.43;;;;;;;-141.97;73.01;47472.94;5031110;28;20217;-79
2023/09/03 03:11:33;;;;;;;18.97;11.03;;;;;;;-141.97;72.29;47465.25;5031820;28;20159;-79
2023/09/03 03:13:58;;;;;;;18.90;11.77;;;;;;;-141.97;72.00;47465.25;5031837;28;20170;-79
2023/09/03 03:16:23;;;;;;;16.03;11.57;;;;;;;-141.97;72.32;47461.41;5031837;28;20567;-78
2023/09/03 03:18:50;;;;;;;18.20;12.33;;;;;;;-141.97;72.70;47438.34;5030644;28;20166;-80
2023/09/03 03:21:19;;;;;;;18.80;12.57;;;;;;;-141.97;72.99;47501.78;5031388;28;20177;-79
2023/09/03 03:23:50;;;;;;;17.33;12.63;;;;;;;-141.97;72.96;47436.44;5033660;28;20190;-79
2023/09/03 03:26:16;;;;;;;18.50;12.00;;;;;;;-141.97;73.12;47422.97;5038294;28;20154;-79
2023/09/03 03:28:42;;;;;;;18.67;12.13;;;;;;;-141.97;73.10;47446.03;5041647;28;20170;-80
2023/09/03 03:31:14;;;;;;;20.73;11.83;;;;;;;-141.97;72.79;47476.78;5037925;28;20170;-80
2023/09/03 03:33:40;;;;;;;23.67;12.07;;;;;;;-141.97;72.59;47461.41;5043603;28;20166;-80
2023/09/03 03:36:06;;;;;;;15.73;11.37;;;;;;;-141.97;72.77;47438.34;5032527;28;20190;-79
2023/09/03 03:38:32;;;;;;;16.60;11.87;;;;;;;-141.97;72.35;47457.56;5031560;28;20173;-79
2023/09/03 03:41:09;;;;;;;17.47;11.63;;;;;;;-141.97;72.18;47476.78;5032371;28;20170;-79
2023/09/03 03:43:35;;;;;;;16.43;11.97;;;;;;;-141.97;71.80;47417.22;5043881;28;20239;-79
2023/09/03 03:46:01;;;;;;;16.80;11.47;;;;;;;-141.97;71.96;47499.84;5044228;28;20657;-79
2023/09/03 03:48:26;;;;;;;18.10;12.10;;;;;;;-141.97;72.32;47451.81;5025200;28;20166;-79
2023/09/03 03:50:55;;;;;;;18.07;12.20;;;;;;;-141.97;71.87;47417.22;5031099;28;20168;-79
2023/09/03 03:53:20;;;;;;;16.17;11.97;;;;;;;-141.97;71.57;47430.66;5030996;28;20186;-79
2023/09/03 03:55:46;;;;;;;17.77;12.60;;;;;;;-141.97;71.13;47488.31;5029847;28;20255;-79
2023/09/03 03:58:11;;;;;;;22.07;13.07;;;;;;;-141.97;70.67;47465.25;5030402;28;20197;-79
2023/09/03 04:00:36;;;;;;;18.70;13.20;;;;;;;-141.97;70.12;47438.34;5032413;28;20190;-79
2023/09/03 04:03:02;;;;;;;23.10;12.87;;;;;;;-141.97;69.94;47467.19;5042476;28;20192;-78
2023/09/03 04:05:28;;;;;;;21.13;13.27;;;;;;;-141.97;70.53;47413.38;5056120;28;20169;-79
2023/09/03 04:07:54;;;;;;;20.40;12.60;;;;;;;-141.97;71.79;47472.94;5036138;28;20253;-79
2023/09/03 04:10:19;;;;;;;17.87;12.60;;;;;;;-141.97;72.44;47484.47;5030888;28;20227;-79
2023/09/03 04:12:45;;;;;;;16.00;12.23;;;;;;;-141.97;72.49;47488.31;5029378;28;20619;-79
2023/09/03 04:15:10;;;;;;;15.97;11.50;;;;;;;-141.97;71.35;47484.47;5030545;28;20186;-79
2023/09/03 04:17:36;;;;;;;17.37;10.80;;;;;;;-141.97;70.78;47484.47;5030476;28;20544;-79
2023/09/03 04:20:01;;;;;;;15.63;11.00;;;;;;;-141.97;70.15;47472.94;5030477;28;20166;-79
2023/09/03 04:22:27;;;;;;;15.77;11.10;;;;;;;-141.97;69.73;47657.47;5030488;28;20158;-80
2023/09/03 04:24:52;;;;;;;15.13;10.87;;;;;;;-141.97;69.98;47486.41;5030348;28;20169;-79
2023/09/03 04:27:17;;;;;;;14.50;10.57;;;;;;;-141.97;70.27;47457.56;5030484;28;20196;-80
2023/09/03 04:29:43;;;;;;;16.10;10.87;;;;;;;-141.97;69.86;47499.84;5030337;28;20169;-79
2023/09/03 04:32:08;;;;;;;15.63;10.80;;;;;;;-141.97;69.23;47449.88;5030565;28;20224;-79
2023/09/03 04:34:33;;;;;;;17.63;10.80;;;;;;;-141.97;69.53;47474.88;5028550;28;20203;-80
2023/09/03 04:36:59;;;;;;;13.13;10.60;;;;;;;-141.97;69.66;47465.25;5030319;28;20649;-79
2023/09/03 04:39:24;;;;;;;14.57;10.57;;;;;;;-141.97;69.02;47496.00;5030465;28;20186;-79
2023/09/03 04:41:49;;;;;;;13.67;10.00;;;;;;;-141.97;68.68;47434.50;5030111;28;20276;-80
2023/09/03 04:44:15;;;;;;;14.40;10.10;;;;;;;-141.97;68.92;47486.41;5030015;28;20174;-80
2023/09/03 04:46:40;;;;;;;13.63;10.13;;;;;;;-141.97;68.84;47465.25;5030418;28;20154;-80
2023/09/03 04:49:05;;;;;;;14.43;10.37;;;;;;;-141.97;68.11;47488.31;5020828;28;20253;-80
2023/09/03 04:51:31;;;;;;;14.63;10.07;;;;;;;-141.97;68.45;47465.25;5030642;28;20245;-80
2023/09/03 04:53:56;;;;;;;14.17;10.30;;;;;;;-141.97;68.12;47447.97;5030423;28;20209;-79
2023/09/03 04:56:23;;;;;;;15.63;9.80;;;;;;;-141.97;68.31;47499.84;5033852;28;20197;-79
2023/09/03 04:58:48;;;;;;;13.83;9.77;;;;;;;-141.97;68.19;47476.78;5031979;28;20162;-79
2023/09/03 05:01:15;;;;;;;15.00;10.73;;;;;;;-141.97;67.78;47459.50;5030881;28;20166;-78
2023/09/03 05:03:41;;;;;;;12.23;9.77;;;;;;;-141.97;67.12;47478.72;5030056;28;20184;-79
2023/09/03 05:06:10;;;;;;;15.57;10.10;;;;;;;-141.97;66.21;47446.03;5030469;28;20253;-80
2023/09/03 05:08:36;;;;;;;12.97;9.90;;;;;;;-141.97;65.70;47465.25;5030328;28;20186;-78
2023/09/03 05:11:12;;;;;;;14.77;10.33;;;;;;;-141.97;65.03;47486.41;5030390;28;20169;-80
2023/09/03 05:13:41;;;;;;;11.00;9.43;;;;;;;-141.97;64.55;47490.25;5030071;28;20623;-80
2023/09/03 05:16:07;;;;;;;18.87;9.93;;;;;;;-141.97;64.52;47486.41;5030459;28;20204;-80
2023/09/03 05:18:33;;;;;;;12.37;9.20;;;;;;;-141.97;64.51;47451.81;5030468;28;20178;-80
2023/09/03 05:21:05;;;;;;;14.10;9.50;;;;;;;-141.97;64.25;47488.31;5030567;28;20165;-80
2023/09/03 05:23:30;;;;;;;14.53;9.23;;;;;;;-141.97;63.53;47488.31;5028631;28;20194;-78
2023/09/03 05:25:56;;;;;;;15.00;9.47;;;;;;;-141.97;62.97;47476.78;5028491;28;20310;-80
2023/09/03 05:28:21;;;;;;;11.87;9.33;;;;;;;-141.97;62.20;47453.72;5030239;28;20539;-80
2023/09/03 05:30:48;;;;;;;12.30;9.47;;;;;;;-141.97;61.37;47442.19;5029926;28;20276;-81
2023/09/03 05:33:15;;;;;;;12.80;9.30;;;;;;;-141.97;61.36;47469.09;5030094;28;20631;-80
2023/09/03 05:35:41;;;;;;;11.47;9.37;;;;;;;-141.97;61.05;47486.41;5036576;28;20177;-80
2023/09/03 05:38:07;;;;;;;13.00;8.97;;;;;;;-141.97;60.56;47472.94;5036641;28;20237;-79
2023/09/03 05:40:32;;;;;;;13.07;8.93;;;;;;;-141.97;59.50;47467.19;5037119;28;20201;-80
2023/09/03 05:42:58;;;;;;;14.17;9.37;;;;;;;-141.97;58.75;47421.06;5039755;28;20218;-79
2023/09/03 05:45:23;;;;;;;11.83;8.67;;;;;;;-141.97;58.09;47459.50;5034542;28;20162;-80
2023/09/03 05:47:49;;;;;;;14.93;9.27;;;;;;;-141.97;57.56;47444.13;5033578;28;20170;-80
2023/09/03 05:50:15;;;;;;;11.63;8.87;;;;;;;-141.97;57.26;47421.06;5022760;28;20237;-80
2023/09/03 05:52:41;;;;;;;11.10;8.70;;;;;;;-141.97;56.45;47453.72;5033182;28;20166;-80
2023/09/03 05:55:07;;;;;;;11.90;8.80;;;;;;;-141.97;55.86;47476.78;5033218;28;20225;-80
2023/09/03 05:57:32;;;;;;;12.77;9.20;;;;;;;-141.97;55.49;47530.59;5033287;28;20197;-80
2023/09/03 05:59:58;;;;;;;12.23;8.23;;;;;;;-141.97;55.15;47451.81;5031993;28;20250;-80
2023/09/03 06:02:23;;;;;;;12.00;8.87;;;;;;;-141.97;54.71;47553.69;5033084;28;20170;-79
2023/09/03 06:04:52;;;;;;;12.83;8.97;;;;;;;-141.97;54.92;47419.13;5032552;28;20201;-79
2023/09/03 06:07:17;;;;;;;12.03;8.67;;;;;;;-141.97;54.33;47444.13;5033107;28;20166;-83
2023/09/03 06:09:44;;;;;;;11.77;8.70;;;;;;;-141.97;53.55;47442.19;5031727;28;20174;-79
2023/09/03 06:12:10;;;;;;;9.77;8.30;;;;;;;-141.97;53.38;47446.03;5032586;28;20211;-80
2023/09/03 06:14:35;;;;;;;12.30;9.40;;;;;;;-141.97;53.50;47434.50;5032621;28;20170;-80
2023/09/03 06:17:02;;;;;;;9.70;8.23;;;;;;;-141.97;52.81;47422.97;5032657;28;20180;-80
2023/09/03 06:19:27;;;;;;;11.70;8.73;;;;;;;-141.97;52.53;47430.66;5033230;28;20241;-79
2023/09/03 06:21:53;;;;;;;11.30;8.20;;;;;;;-141.97;51.47;47484.47;5032578;28;20765;-79
2023/09/03 06:24:18;;;;;;;10.83;8.33;;;;;;;-141.97;51.45;47430.66;5032934;28;20166;-82
2023/09/03 06:26:43;;;;;;;12.80;8.60;;;;;;;-141.97;51.39;47434.50;5033655;28;20698;-79
2023/09/03 06:29:09;;;;;;;11.37;8.20;;;;;;;-141.97;50.02;47442.19;5033071;28;20241;-80
2023/09/03 06:31:34;;;;;;;12.17;8.70;;;;;;;-141.97;50.73;47394.16;5032486;28;20174;-79
2023/09/03 06:34:00;;;;;;;12.67;9.20;;;;;;;-141.97;50.61;47453.72;5033003;28;20212;-79
2023/09/03 06:36:25;;;;;;;11.70;8.17;;;;;;;-141.97;50.38;47417.22;5032880;28;20316;-80
2023/09/03 06:38:51;;;;;;;10.00;8.17;;;;;;;-141.97;49.75;47426.81;5032362;28;20578;-80
2023/09/03 06:41:17;;;;;;;12.70;8.53;;;;;;;-141.97;50.17;47415.28;5031952;28;20265;-79
2023/09/03 06:43:42;;;;;;;11.00;8.60;;;;;;;-141.97;49.77;47376.84;5032351;28;20333;-81
2023/09/03 06:46:08;;;;;;;10.87;8.27;;;;;;;-141.97;50.35;47421.06;5032584;28;20170;-79
2023/09/03 06:48:34;;;;;;;11.07;8.27;;;;;;;-141.97;50.06;47419.13;5032656;28;20166;-80
2023/09/03 06:50:59;;;;;;;9.43;8.40;;;;;;;-141.97;50.01;47415.28;5022470;28;20235;-79
2023/09/03 06:53:25;;;;;;;13.17;9.03;;;;;;;-141.97;50.13;47386.47;5032381;28;20158;-79
2023/09/03 06:55:51;;;;;;;10.30;8.30;;;;;;;-141.97;49.08;47447.97;5032756;28;20178;-80
2023/09/03 06:58:17;;;;;;;11.93;8.33;;;;;;;-141.97;49.14;47334.56;5033287;28;20625;-80
2023/09/03 07:00:42;;;;;;;11.17;8.63;;;;;;;-141.97;49.29;47430.66;5031905;28;20257;-80
2023/09/03 07:03:08;;;;;;;10.33;8.33;;;;;;;-141.97;48.93;47415.28;5031512;28;20168;-79
2023/09/03 07:05:33;;;;;;;10.63;8.00;;;;;;;-141.97;48.59;47378.78;5031682;28;20244;-79
2023/09/03 07:07:59;;;;;;;11.43;8.13;;;;;;;-141.97;48.15;47430.66;5031870;28;20488;-80
2023/09/03 07:10:24;;;;;;;11.70;8.10;;;;;;;-141.97;48.35;47392.22;5028545;28;20182;-80
2023/09/03 07:12:49;;;;;;;10.57;8.30;;;;;;;-141.97;47.67;47459.50;5011984;28;20169;-79
2023/09/03 07:15:15;;;;;;;11.27;8.30;;;;;;;-141.97;47.76;47380.69;5016721;28;20223;-79
2023/09/03 07:17:40;;;;;;;11.30;7.75;;;;;;;-141.97;46.98;47396.06;5026805;28;20184;-82
2023/09/03 07:20:06;;;;;;;10.68;7.93;;;;;;;-141.97;46.42;47380.69;5016919;28;20575;-79
2023/09/03 07:22:32;;;;;;;11.95;8.15;;;;;;;-141.97;46.20;47361.47;5031040;28;20238;-79
2023/09/03 07:24:57;;;;;;;9.27;7.90;;;;;;;-141.97;46.19;47399.91;5031470;28;20162;-80
2023/09/03 07:27:23;;;;;;;9.50;7.40;;;;;;;-141.97;47.75;47365.31;5031219;28;20164;-80
2023/09/03 07:29:54;;;;;;;8.95;7.30;;;;;;;-141.97;47.14;47330.72;5030567;28;20269;-79
2023/09/03 07:32:21;;;;;;;10.82;7.53;;;;;;;-141.97;45.47;47390.31;5030534;28;20591;-79
2023/09/03 07:34:46;;;;;;;13.15;8.10;;;;;;;-141.97;44.95;47363.41;5031012;28;20745;-81
2023/09/03 07:37:12;;;;;;;9.50;7.15;;;;;;;-141.97;44.46;47398.00;5030920;28;20170;-81
2023/09/03 07:39:37;;;;;;;13.18;8.45;;;;;;;-141.97;43.41;47386.47;5032959;28;20578;-81
2023/09/03 07:42:03;;;;;;;9.38;8.30;;;;;;;-141.97;42.86;47353.78;5033471;28;20492;-81
2023/09/03 07:44:28;;;;;;;9.18;7.20;;;;;;;-141.97;42.88;47359.56;5037895;28;20170;-80
2023/09/03 07:46:53;;;;;;;9.48;7.13;;;;;;;-141.97;42.89;47365.31;5046323;28;20625;-79
2023/09/03 07:49:19;;;;;;;7.80;6.50;;;;;;;-141.97;42.92;47344.19;5032675;28;20226;-80
2023/09/03 07:51:44;;;;;;;8.18;6.65;;;;;;;-141.97;42.25;47353.78;5041798;28;20208;-79
2023/09/03 07:54:10;;;;;;;7.55;6.47;;;;;;;-141.97;42.14;47346.09;5038771;28;20187;-80
2023/09/03 07:56:35;;;;;;;14.00;8.23;;;;;;;-141.97;41.79;47334.56;5031851;28;20585;-81
2023/09/03 07:59:01;;;;;;;8.55;6.50;;;;;;;-141.97;41.30;47357.63;5031335;28;20513;-79
2023/09/03 08:01:26;;;;;;;7.60;6.72;;;;;;;-141.97;40.42;47351.88;5030221;28;20169;-80
2023/09/03 08:03:51;;;;;;;9.63;7.00;;;;;;;-141.97;40.03;47342.25;5029575;28;20181;-81
2023/09/03 08:06:17;;;;;;;10.20;7.20;;;;;;;-141.97;39.61;47355.72;5030233;28;20162;-79
2023/09/03 08:08:43;;;;;;;9.05;6.88;;;;;;;-141.97;38.96;47336.50;5030389;28;20155;-80
2023/09/03 08:11:08;;;;;;;7.38;6.53;;;;;;;-141.97;39.88;47342.25;5030023;28;20241;-80
2023/09/03 08:13:34;;;;;;;10.32;6.70;;;;;;;-141.97;39.56;47319.19;5030594;28;20185;-80
2023/09/03 08:15:59;;;;;;;9.18;6.43;;;;;;;-141.97;38.93;47301.91;5030521;28;20265;-80
2023/09/03 08:18:25;;;;;;;8.43;6.18;;;;;;;-141.97;38.21;47317.28;5030539;28;20376;-80
2023/09/03 08:20:51;;;;;;;7.72;6.22;;;;;;;-141.97;37.53;47326.88;5029918;28;20169;-81
2023/09/03 08:23:17;;;;;;;6.85;6.15;;;;;;;-141.97;37.92;47338.41;5030185;28;20166;-80
2023/09/03 08:25:43;;;;;;;8.95;6.38;;;;;;;-141.97;36.95;47330.72;5030247;28;20153;-79
2023/09/03 08:28:09;;;;;;;7.38;6.07;;;;;;;-141.97;36.60;47307.66;5030226;28;20186;-80
2023/09/03 08:30:35;;;;;;;7.85;6.25;;;;;;;-141.97;36.86;47342.25;5029927;28;20186;-81
2023/09/03 08:33:00;;;;;;;6.97;6.20;;;;;;;-141.97;36.53;47319.19;5030061;28;20563;-79
2023/09/03 08:35:27;;;;;;;7.53;6.13;;;;;;;-141.97;36.64;47292.28;5029968;28;20552;-80
2023/09/03 08:37:52;;;;;;;7.72;6.70;;;;;;;-141.97;37.48;47323.03;5029982;28;20168;-79
2023/09/03 08:40:18;;;;;;;6.68;5.72;;;;;;;-141.97;37.28;47303.81;5029629;28;20256;-79
2023/09/03 08:42:46;;;;;;;9.27;7.70;;;;;;;-141.97;37.17;47294.22;5029861;28;20235;-79
2023/09/03 08:45:12;;;;;;;6.93;6.10;;;;;;;-141.97;36.30;47334.56;5029996;28;20164;-79
2023/09/03 08:47:41;;;;;;;9.13;6.70;;;;;;;-141.97;36.76;47344.19;5029835;28;20216;-79
2023/09/03 08:50:11;;;;;;;7.43;6.40;;;;;;;-141.97;37.29;47307.66;5020561;28;20245;-79
2023/09/03 08:52:38;;;;;;;7.00;6.30;;;;;;;-141.97;35.84;47305.75;5028005;28;20184;-80
2023/09/03 08:55:05;;;;;;;7.85;6.43;;;;;;;-141.97;34.50;47476.78;5029939;28;20188;-80
2023/09/03 08:57:34;;;;;;;6.70;5.25;;;;;;;-141.97;33.21;47273.06;5030049;28;20242;-80
2023/09/03 09:00:00;;;;;;;7.25;5.50;;;;;;;-141.97;32.65;47342.25;5030026;28;20165;-80
2023/09/03 09:02:26;;;;;;;7.43;5.43;;;;;;;-141.97;32.17;47296.13;5029609;28;20177;-80
2023/09/03 09:04:52;;;;;;;5.95;5.43;;;;;;;-141.97;31.99;47265.38;5029671;28;20181;-81
2023/09/03 09:07:22;;;;;;;6.20;5.57;;;;;;;-141.97;32.16;47299.97;5029684;28;20208;-80
2023/09/03 09:09:48;;;;;;;7.57;5.45;;;;;;;-141.97;32.02;47269.22;5028267;28;20273;-80
2023/09/03 09:12:32;;;;;;;8.43;5.97;;;;;;;-141.97;31.17;47301.91;5029210;28;20170;-80
2023/09/03 09:15:04;;;;;;;7.78;5.10;;;;;;;-141.97;29.82;47263.47;5029706;28;20200;-80
2023/09/03 09:17:43;;;;;;;6.38;5.03;;;;;;;-141.97;29.64;47284.59;5033242;28;20201;-81
2023/09/03 09:20:12;;;;;;;6.45;5.18;;;;;;;-141.97;29.28;47396.06;5031993;28;20173;-80
2023/09/03 09:22:47;;;;;;;6.55;5.28;;;;;;;-141.97;29.85;47250.00;5032965;28;20705;-80
2023/09/03 09:25:26;;;;;;;5.75;4.90;;;;;;;-141.97;30.37;47263.47;5033153;28;20157;-81
2023/09/03 09:27:53;;;;;;;5.80;5.18;;;;;;;-141.97;29.94;47238.47;5033394;28;20553;-79
2023/09/03 09:30:21;;;;;;;6.80;5.15;;;;;;;-141.97;29.53;47257.69;5033615;28;20616;-80
2023/09/03 09:32:49;;;;;;;5.05;4.55;;;;;;;-141.97;29.02;47276.91;5031640;28;20181;-79
2023/09/03 09:35:24;;;;;;;7.15;5.00;;;;;;;-141.97;29.08;47238.47;5032667;28;20205;-79
2023/09/03 09:37:50;;;;;;;6.20;4.70;;;;;;;-141.97;28.69;47236.56;5033052;28;20180;-81
2023/09/03 09:40:26;;;;;;;5.30;4.80;;;;;;;-141.97;28.46;47230.78;5033314;28;20162;-80
2023/09/03 09:42:55;;;;;;;5.35;4.78;;;;;;;-141.97;28.38;47236.56;5032737;28;20587;-80
2023/09/03 09:45:21;;;;;;;7.07;5.20;;;;;;;-141.97;28.18;47213.50;5033332;28;20225;-80
2023/09/03 09:47:46;;;;;;;5.15;4.65;;;;;;;-141.97;28.28;47223.09;5032854;28;20166;-79
2023/09/03 09:50:12;;;;;;;5.20;4.70;;;;;;;-141.97;28.75;47221.19;5023146;28;20237;-81
2023/09/03 09:52:38;;;;;;;5.63;4.88;;;;;;;-141.97;28.54;47226.94;5032899;28;20190;-81
2023/09/03 09:55:04;;;;;;;5.45;4.90;;;;;;;-141.97;27.85;47261.53;5034781;28;20190;-80
2023/09/03 09:57:30;;;;;;;11.00;8.75;;;;;;;-141.97;28.00;47278.84;5045640;28;20534;-79
2023/09/03 10:00:01;;;;;;;7.13;5.68;;;;;;;-141.97;28.18;47248.09;5037315;28;20166;-79
2023/09/03 10:02:26;;;;;;;6.93;5.10;;;;;;;-141.97;28.40;47228.88;5045656;28;20657;-80
2023/09/03 10:04:53;;;;;;;5.85;5.13;;;;;;;-141.97;28.07;47238.47;5044725;28;20166;-81
2023/09/03 10:07:18;;;;;;;6.07;4.57;;;;;;;-141.97;28.14;47207.72;5032972;28;20166;-80
2023/09/03 10:09:45;;;;;;;5.38;4.88;;;;;;;-141.97;28.14;47238.47;5032706;28;20162;-80
2023/09/03 10:12:11;;;;;;;5.45;4.95;;;;;;;-141.97;27.81;47226.94;5032508;28;20174;-80
2023/09/03 10:14:37;;;;;;;5.60;5.10;;;;;;;-141.97;27.85;47380.69;5033661;28;20216;-81
2023/09/03 10:17:05;;;;;;;5.22;4.72;;;;;;;-141.97;27.63;47223.09;5046342;28;20214;-81
2023/09/03 10:19:47;;;;;;;5.53;4.90;;;;;;;-141.97;27.62;47230.78;5048351;28;20189;-80
2023/09/03 10:22:14;;;;;;;6.57;4.70;;;;;;;-141.97;27.45;47190.44;5034693;28;20178;-79
2023/09/03 10:24:42;;;;;;;5.00;4.50;;;;;;;-141.97;27.98;47225.03;5033389;28;20174;-83
2023/09/03 10:27:12;;;;;;;4.90;4.50;;;;;;;-141.97;28.05;47250.00;5032465;28;20162;-80
2023/09/03 10:29:40;;;;;;;5.93;4.70;;;;;;;-141.97;28.32;47253.84;5032785;28;20622;-79
2023/09/03 10:32:06;;;;;;;5.47;4.93;;;;;;;-141.97;28.27;47211.56;5032293;28;20166;-81
2023/09/03 10:34:35;;;;;;;5.93;4.88;;;;;;;-141.97;28.38;47242.31;5032453;28;20184;-82
2023/09/03 10:37:05;;;;;;;5.22;4.80;;;;;;;-141.97;28.14;47288.44;5032131;28;20181;-81
2023/09/03 10:39:31;;;;;;;6.22;5.60;;;;;;;-141.97;28.13;47246.16;5032197;28;20524;-81
2023/09/03 10:42:15;;;;;;;5.40;4.88;;;;;;;-141.97;27.68;47226.94;5032019;28;20228;-80
2023/09/03 10:44:45;;;;;;;6.78;5.07;;;;;;;-141.97;27.98;47219.25;5032175;28;20219;-80
2023/09/03 10:47:13;;;;;;;5.85;5.10;;;;;;;-141.97;28.03;47288.44;5032466;28;20158;-80
2023/09/03 10:49:43;;;;;;;6.75;4.90;;;;;;;-141.97;28.00;47213.50;5032465;28;20177;-80
2023/09/03 10:52:27;;;;;;;5.35;4.85;;;;;;;-141.97;27.81;47201.97;5026397;28;20233;-80
2023/09/03 10:55:12;;;;;;;5.65;5.13;;;;;;;-141.97;28.37;47236.56;5032090;28;20279;-80
2023/09/03 10:57:38;;;;;;;6.78;5.78;;;;;;;-141.97;28.26;47248.09;5030711;28;20193;-79
2023/09/03 11:00:06;;;;;;;6.15;5.50;;;;;;;-141.97;28.21;47250.00;5031478;28;20170;-80
2023/09/03 11:02:34;;;;;;;5.57;4.95;;;;;;;-141.97;27.85;47255.78;5031633;28;20519;-80
2023/09/03 11:05:12;;;;;;;5.25;4.80;;;;;;;-141.97;27.84;47180.81;5031634;28;20531;-80
2023/09/03 11:07:39;;;;;;;6.55;5.95;;;;;;;-141.97;28.55;47261.53;5031911;28;20178;-80
2023/09/03 11:10:24;;;;;;;5.50;5.00;;;;;;;-141.97;28.12;47265.38;5031516;28;20631;-81
2023/09/03 11:12:51;;;;;;;5.25;4.85;;;;;;;-141.97;28.56;47234.63;5031450;28;20169;-81